createdAt,value
2018-05-11T00:01:20.406Z,82.75
2018-05-11T00:03:46.912Z,83.53
2018-05-11T00:06:13.391Z,83.55
2018-05-11T00:08:39.871Z,83.96
2018-05-11T00:11:06.313Z,83.60
2018-05-11T00:13:32.805Z,83.35
2018-05-11T00:15:59.301Z,83.52
2018-05-11T00:18:25.726Z,82.60
2018-05-11T00:20:52.226Z,81.85
2018-05-11T00:23:18.757Z,81.45
2018-05-11T00:25:45.157Z,82.11
2018-05-11T00:28:11.587Z,83.32
2018-05-11T00:30:37.965Z,83.61
2018-05-11T00:33:04.412Z,83.48
2018-05-11T00:35:30.961Z,85.30
2018-05-11T00:37:57.370Z,86.17
2018-05-11T00:40:23.817Z,86.94
2018-05-11T00:42:50.256Z,87.66
2018-05-11T00:45:16.860Z,87.79
2018-05-11T00:47:43.265Z,88.67
2018-05-11T00:50:09.716Z,89.58
2018-05-11T00:52:36.153Z,89.03
2018-05-11T00:55:14.687Z,89.58
2018-05-11T00:57:41.134Z,89.45
2018-05-11T01:00:08.447Z,89.59
2018-05-11T01:02:34.939Z,90.06
2018-05-11T01:05:01.410Z,89.99
2018-05-11T01:07:29.265Z,89.46
2018-05-11T01:09:55.692Z,89.95
2018-05-11T01:12:22.187Z,89.06
2018-05-11T01:14:48.640Z,89.26
2018-05-11T01:17:15.088Z,89.29
2018-05-11T01:19:41.598Z,89.04
2018-05-11T01:22:08.131Z,89.79
2018-05-11T01:24:34.596Z,90.07
2018-05-11T01:27:01.021Z,90.87
2018-05-11T01:29:27.361Z,90.94
2018-05-11T01:31:53.882Z,90.37
2018-05-11T01:34:20.307Z,89.93
2018-05-11T01:36:46.687Z,90.38
2018-05-11T01:39:13.050Z,89.67
2018-05-11T01:41:39.479Z,90.00
2018-05-11T01:44:05.907Z,90.39
2018-05-11T01:46:32.433Z,90.66
2018-05-11T01:48:59.000Z,90.38
2018-05-11T01:51:25.426Z,89.95
2018-05-11T01:53:51.954Z,90.84
2018-05-11T01:56:18.381Z,90.62
2018-05-11T01:58:44.887Z,90.61
2018-05-11T02:01:11.278Z,90.32
2018-05-11T02:03:38.545Z,90.96
2018-05-11T02:06:05.007Z,90.97
2018-05-11T02:08:31.392Z,90.48
2018-05-11T02:10:57.824Z,90.38
2018-05-11T02:13:24.254Z,89.86
2018-05-11T02:15:50.674Z,89.45
2018-05-11T02:18:17.126Z,89.53
2018-05-11T02:20:43.559Z,89.15
2018-05-11T02:23:09.994Z,89.18
2018-05-11T02:25:36.465Z,88.81
2018-05-11T02:28:02.922Z,89.49
2018-05-11T02:30:29.341Z,89.17
2018-05-11T02:32:55.867Z,89.72
2018-05-11T02:35:22.350Z,89.89
2018-05-11T02:37:48.776Z,89.21
2018-05-11T02:40:15.184Z,89.87
2018-05-11T02:42:41.667Z,89.95
2018-05-11T02:45:08.242Z,90.35
2018-05-11T02:47:34.972Z,90.38
2018-05-11T02:50:01.405Z,90.26
2018-05-11T02:52:28.637Z,90.54
2018-05-11T02:54:55.108Z,90.50
2018-05-11T02:57:21.677Z,90.73
2018-05-11T02:59:48.074Z,90.58
2018-05-11T03:02:14.576Z,90.14
2018-05-11T03:04:41.463Z,89.82
2018-05-11T03:07:08.053Z,89.52
2018-05-11T03:09:34.579Z,89.12
2018-05-11T03:12:01.029Z,89.58
2018-05-11T03:14:27.640Z,90.17
2018-05-11T03:16:54.123Z,90.28
2018-05-11T03:19:20.517Z,90.32
2018-05-11T03:21:46.890Z,91.22
2018-05-11T03:24:14.180Z,91.06
2018-05-11T03:26:40.761Z,90.93
2018-05-11T03:29:07.161Z,91.10
2018-05-11T03:31:33.677Z,91.22
2018-05-11T03:34:00.067Z,91.17
2018-05-11T03:36:26.578Z,91.40
2018-05-11T03:38:53.006Z,91.50
2018-05-11T03:41:19.383Z,91.40
2018-05-11T03:43:45.898Z,91.48
2018-05-11T03:46:12.285Z,91.99
2018-05-11T03:48:38.846Z,91.69
2018-05-11T03:51:05.365Z,91.35
2018-05-11T03:53:31.748Z,90.65
2018-05-11T03:55:58.200Z,90.48
2018-05-11T03:58:24.700Z,89.84
2018-05-11T04:00:51.124Z,89.29
2018-05-11T04:03:29.858Z,89.21
2018-05-11T04:19:35.793Z,89.40
2018-05-11T04:22:02.266Z,88.88
2018-05-11T04:24:28.755Z,89.47
2018-05-11T04:26:55.284Z,89.14
2018-05-11T04:29:21.661Z,88.93
2018-05-11T04:31:48.102Z,89.07
2018-05-11T04:34:14.461Z,89.49
2018-05-11T04:36:40.899Z,89.01
2018-05-11T04:39:07.566Z,89.17
2018-05-11T04:41:34.053Z,89.53
2018-05-11T04:44:00.515Z,89.65
2018-05-11T04:46:26.998Z,89.72
2018-05-11T04:48:53.446Z,89.99
2018-05-11T04:51:19.911Z,90.01
2018-05-11T04:53:47.232Z,89.84
2018-05-11T04:56:13.674Z,90.19
2018-05-11T04:58:40.187Z,89.77
2018-05-11T05:01:06.638Z,89.46
2018-05-11T05:03:33.149Z,89.12
2018-05-11T05:05:59.573Z,89.70
2018-05-11T05:08:26.071Z,89.97
2018-05-11T05:10:52.531Z,88.93
2018-05-11T05:13:18.941Z,89.61
2018-05-11T05:15:45.295Z,89.73
2018-05-11T05:18:11.777Z,89.68
2018-05-11T05:20:38.212Z,89.31
2018-05-11T05:23:04.694Z,89.59
2018-05-11T05:25:32.071Z,89.11
2018-05-11T05:27:58.543Z,89.19
2018-05-11T05:30:24.921Z,88.82
2018-05-11T05:32:51.297Z,88.46
2018-05-11T05:35:18.386Z,88.73
2018-05-11T05:37:44.790Z,87.75
2018-05-11T05:40:11.356Z,87.29
2018-05-11T05:42:37.837Z,87.17
2018-05-11T05:45:04.315Z,87.97
2018-05-11T05:47:30.788Z,86.94
2018-05-11T05:49:57.249Z,86.96
2018-05-11T05:52:23.793Z,86.45
2018-05-11T05:54:50.254Z,86.36
2018-05-11T05:57:16.809Z,86.21
2018-05-11T05:59:43.291Z,86.28
2018-05-11T06:02:09.814Z,85.73
2018-05-11T06:04:36.369Z,86.32
2018-05-11T06:07:02.925Z,86.67
2018-05-11T06:09:29.434Z,86.04
2018-05-11T06:11:55.902Z,86.18
2018-05-11T06:14:22.429Z,86.24
2018-05-11T06:16:48.844Z,86.03
2018-05-11T06:19:15.350Z,85.46
2018-05-11T06:21:41.762Z,85.14
2018-05-11T06:24:08.215Z,85.89
2018-05-11T06:26:34.857Z,84.98
2018-05-11T06:29:01.315Z,85.20
2018-05-11T06:31:27.838Z,84.98
2018-05-11T06:33:54.282Z,84.76
2018-05-11T06:36:20.828Z,85.12
2018-05-11T06:38:47.313Z,84.34
2018-05-11T06:41:13.757Z,84.95
2018-05-11T06:43:40.136Z,84.41
2018-05-11T06:46:06.671Z,84.29
2018-05-11T06:48:33.153Z,83.92
2018-05-11T06:50:59.600Z,83.14
2018-05-11T06:53:25.987Z,83.09
2018-05-11T06:55:52.479Z,83.63
2018-05-11T06:58:18.930Z,83.66
2018-05-11T07:00:45.577Z,83.33
2018-05-11T07:03:11.959Z,83.38
2018-05-11T07:05:38.382Z,82.57
2018-05-11T07:08:04.898Z,83.13
2018-05-11T07:10:31.320Z,81.54
2018-05-11T07:12:57.727Z,81.67
2018-05-11T07:15:24.146Z,81.59
2018-05-11T07:17:50.643Z,82.05
2018-05-11T07:20:17.040Z,82.82
2018-05-11T07:22:43.439Z,82.40
2018-05-11T07:25:09.976Z,82.07
2018-05-11T07:27:36.378Z,82.54
2018-05-11T07:30:03.016Z,83.04
2018-05-11T07:32:29.440Z,83.23
2018-05-11T07:34:56.831Z,83.55
2018-05-11T07:37:23.273Z,82.53
2018-05-11T07:39:49.647Z,83.12
2018-05-11T07:42:16.016Z,83.61
2018-05-11T07:44:42.567Z,82.83
2018-05-11T07:47:08.982Z,82.63
2018-05-11T07:49:35.922Z,82.84
2018-05-11T07:52:02.404Z,83.04
2018-05-11T07:54:28.760Z,82.69
2018-05-11T07:56:55.436Z,82.72
2018-05-11T07:59:21.862Z,82.88
2018-05-11T08:01:48.264Z,82.82
2018-05-11T08:04:14.683Z,81.96
2018-05-11T08:06:41.210Z,82.03
2018-05-11T08:09:07.646Z,82.08
2018-05-11T08:11:34.189Z,81.30
2018-05-11T08:14:00.690Z,81.20
2018-05-11T08:16:27.176Z,80.58
2018-05-11T08:18:54.464Z,79.21
2018-05-11T08:21:21.134Z,79.26
2018-05-11T08:23:47.521Z,79.20
2018-05-11T08:26:13.904Z,79.91
2018-05-11T08:28:40.392Z,78.84
2018-05-11T08:31:06.751Z,77.82
2018-05-11T08:33:33.362Z,76.60
2018-05-11T08:35:59.909Z,75.75
2018-05-11T08:38:26.273Z,76.91
2018-05-11T08:40:52.703Z,74.71
2018-05-11T08:43:19.159Z,74.86
2018-05-11T08:45:45.590Z,75.09
2018-05-11T08:48:11.958Z,72.77
2018-05-11T08:50:38.369Z,74.10
2018-05-11T08:53:04.950Z,71.82
2018-05-11T08:55:31.488Z,71.98
2018-05-11T08:57:57.869Z,72.42
2018-05-11T09:00:24.333Z,70.29
2018-05-11T09:02:50.863Z,70.69
2018-05-11T09:05:17.294Z,70.48
2018-05-11T09:07:43.938Z,69.96
2018-05-11T09:10:10.338Z,70.13
2018-05-11T09:12:36.780Z,70.93
2018-05-11T09:15:03.376Z,70.69
2018-05-11T09:17:29.855Z,68.85
2018-05-11T09:19:56.352Z,68.48
2018-05-11T09:22:22.826Z,68.61
2018-05-11T09:24:49.409Z,69.20
2018-05-11T09:27:15.901Z,69.84
2018-05-11T09:29:42.461Z,70.74
2018-05-11T09:32:08.971Z,70.37
2018-05-11T09:34:35.367Z,69.56
2018-05-11T09:37:01.835Z,70.02
2018-05-11T09:39:28.310Z,71.32
2018-05-11T09:41:54.756Z,69.97
2018-05-11T09:44:21.176Z,70.69
2018-05-11T09:46:47.626Z,70.93
2018-05-11T09:49:14.067Z,67.57
2018-05-11T09:51:40.582Z,68.49
2018-05-11T09:54:07.099Z,67.01
2018-05-11T09:56:33.533Z,67.78
2018-05-11T09:58:59.951Z,67.64
2018-05-11T10:01:26.346Z,66.90
2018-05-11T10:03:52.785Z,67.57
2018-05-11T10:06:19.384Z,67.97
2018-05-11T10:08:46.396Z,67.38
2018-05-11T10:11:12.844Z,67.84
2018-05-11T10:13:39.472Z,67.82
2018-05-11T10:16:05.853Z,67.14
2018-05-11T10:18:32.242Z,67.42
2018-05-11T10:20:58.680Z,66.31
2018-05-11T10:23:25.176Z,66.84
2018-05-11T10:25:51.549Z,67.48
2018-05-11T10:28:18.588Z,65.58
2018-05-11T10:30:44.992Z,65.85
2018-05-11T10:33:11.402Z,64.58
2018-05-11T10:35:37.855Z,64.85
2018-05-11T10:38:04.307Z,64.14
2018-05-11T10:40:30.839Z,65.39
2018-05-11T10:42:57.230Z,64.50
2018-05-11T10:45:24.179Z,64.98
2018-05-11T10:47:50.997Z,65.30
2018-05-11T10:50:17.513Z,66.05
2018-05-11T10:52:43.906Z,64.71
2018-05-11T10:55:10.360Z,65.42
2018-05-11T10:57:36.818Z,63.22
2018-05-11T11:00:03.273Z,63.50
2018-05-11T11:02:29.911Z,63.42
2018-05-11T11:04:56.396Z,63.91
2018-05-11T11:07:22.841Z,64.24
2018-05-11T11:09:49.317Z,62.74
2018-05-11T11:12:15.695Z,63.04
2018-05-11T11:14:42.054Z,63.39
2018-05-11T11:17:08.526Z,64.23
2018-05-11T11:19:34.983Z,63.79
2018-05-11T11:22:01.582Z,63.81
2018-05-11T11:24:28.111Z,62.95
2018-05-11T11:26:54.492Z,62.65
2018-05-11T11:29:21.082Z,62.54
2018-05-11T11:31:47.535Z,62.00
2018-05-11T11:34:13.964Z,61.80
2018-05-11T11:36:40.295Z,60.97
2018-05-11T11:39:06.754Z,62.11
2018-05-11T11:41:33.808Z,61.71
2018-05-11T11:44:00.200Z,62.01
2018-05-11T11:46:26.697Z,61.84
2018-05-11T11:48:53.146Z,62.14
2018-05-11T11:51:19.583Z,59.26
2018-05-11T11:53:46.086Z,59.58
2018-05-11T11:56:12.615Z,61.51
2018-05-11T11:58:39.315Z,60.59
2018-05-11T12:01:05.738Z,59.05
2018-05-11T12:03:32.179Z,59.50
2018-05-11T12:05:59.655Z,59.22
2018-05-11T12:08:27.932Z,59.96
2018-05-11T12:10:54.325Z,59.39
2018-05-11T12:13:20.718Z,59.12
2018-05-11T12:15:47.172Z,61.02
2018-05-11T12:18:13.582Z,60.77
2018-05-11T12:20:40.760Z,60.73
2018-05-11T12:23:07.138Z,60.53
2018-05-11T12:25:33.505Z,60.57
2018-05-11T12:27:59.895Z,59.38
2018-05-11T12:30:26.350Z,60.51
2018-05-11T12:32:52.853Z,60.71
2018-05-11T12:35:19.323Z,60.04
2018-05-11T12:37:45.781Z,58.92
2018-05-11T12:40:12.207Z,59.43
2018-05-11T12:42:38.614Z,58.96
2018-05-11T12:45:05.074Z,58.62
2018-05-11T12:47:31.538Z,58.54
2018-05-11T12:49:57.996Z,59.75
2018-05-11T12:52:24.431Z,59.67
2018-05-11T12:54:51.778Z,59.96
2018-05-11T12:57:20.776Z,60.34
2018-05-11T12:59:49.537Z,61.19
2018-05-11T13:02:15.961Z,58.51
2018-05-11T13:04:42.447Z,59.74
2018-05-11T13:07:09.003Z,60.74
2018-05-11T13:09:35.506Z,60.18
2018-05-11T13:12:01.909Z,57.95
2018-05-11T13:14:28.347Z,56.16
2018-05-11T13:16:54.774Z,61.76
2018-05-11T13:19:21.513Z,64.67
2018-05-11T13:21:47.867Z,65.81
2018-05-11T13:24:14.256Z,68.03
2018-05-11T13:26:40.757Z,68.83
2018-05-11T13:29:07.282Z,73.85
2018-05-11T13:31:33.758Z,74.12
2018-05-11T13:34:00.369Z,75.71
2018-05-11T13:36:27.188Z,77.45
2018-05-11T13:38:53.627Z,78.85
2018-05-11T13:41:20.107Z,77.54
2018-05-11T13:43:46.453Z,75.79
2018-05-11T13:46:12.977Z,77.63
2018-05-11T13:48:39.429Z,79.54
2018-05-11T13:51:05.849Z,79.84
2018-05-11T13:53:32.355Z,82.62
2018-05-11T13:55:59.798Z,83.91
2018-05-11T13:58:26.153Z,83.12
2018-05-11T14:00:52.556Z,81.71
2018-05-11T14:03:19.044Z,81.76
2018-05-11T14:05:45.591Z,83.19
2018-05-11T14:08:12.658Z,83.89
2018-05-11T14:10:39.112Z,82.71
2018-05-11T14:13:05.562Z,84.44
2018-05-11T14:15:32.113Z,85.11
2018-05-11T14:17:58.706Z,83.47
2018-05-11T14:20:25.260Z,85.45
2018-05-11T14:22:51.750Z,84.42
2018-05-11T14:25:18.298Z,85.73
2018-05-11T14:27:44.755Z,86.29
2018-05-11T14:30:11.275Z,86.29
2018-05-11T14:32:37.771Z,85.27
2018-05-11T14:35:04.249Z,84.88
2018-05-11T14:37:30.809Z,84.20
2018-05-11T14:39:57.337Z,83.18
2018-05-11T14:42:23.915Z,82.62
2018-05-11T14:44:50.310Z,82.41
2018-05-11T14:47:17.776Z,83.24
2018-05-11T14:49:44.280Z,83.97
2018-05-11T14:52:10.723Z,83.44
2018-05-11T14:54:37.102Z,84.31
2018-05-11T14:57:03.511Z,81.49
2018-05-11T14:59:29.991Z,83.04
2018-05-11T15:01:56.398Z,81.43
2018-05-11T15:04:22.778Z,80.60
2018-05-11T15:06:49.295Z,80.16
2018-05-11T15:09:15.766Z,80.56
2018-05-11T15:11:42.285Z,80.18
2018-05-11T15:14:08.763Z,79.63
2018-05-11T15:16:35.236Z,80.63
2018-05-11T15:19:02.754Z,78.92
2018-05-11T15:21:29.258Z,77.84
2018-05-11T15:23:55.783Z,77.79
2018-05-11T15:26:22.335Z,77.07
2018-05-11T15:28:49.148Z,75.38
2018-05-11T15:31:15.617Z,76.53
2018-05-11T15:33:42.043Z,77.17
2018-05-11T15:36:08.493Z,75.79
2018-05-11T15:38:35.053Z,74.62
2018-05-11T15:41:01.515Z,72.61
2018-05-11T15:43:27.890Z,71.38
2018-05-11T15:45:54.348Z,72.04
2018-05-11T15:48:20.823Z,71.07
2018-05-11T15:50:47.312Z,70.89
2018-05-11T15:53:13.762Z,70.97
2018-05-11T15:55:40.262Z,71.15
2018-05-11T15:58:06.677Z,73.31
2018-05-11T16:00:33.050Z,71.96
2018-05-11T16:02:59.416Z,69.70
2018-05-11T16:05:25.907Z,69.74
2018-05-11T16:07:52.428Z,71.23
2018-05-11T16:10:18.942Z,70.98
2018-05-11T16:12:45.427Z,69.35
2018-05-11T16:15:11.891Z,69.53
2018-05-11T16:17:38.311Z,69.75
2018-05-11T16:20:04.720Z,67.39
2018-05-11T16:22:31.277Z,68.00
2018-05-11T16:24:57.788Z,69.77
2018-05-11T16:27:24.283Z,70.18
2018-05-11T16:29:50.715Z,67.79
2018-05-11T16:32:17.257Z,67.78
2018-05-11T16:34:43.700Z,68.65
2018-05-11T16:37:10.098Z,68.09
2018-05-11T16:39:36.659Z,67.87
2018-05-11T16:42:03.101Z,67.79
2018-05-11T16:44:29.533Z,68.81
2018-05-11T16:46:56.020Z,68.07
2018-05-11T16:49:22.504Z,68.12
2018-05-11T16:51:49.026Z,68.33
2018-05-11T16:54:15.443Z,68.53
2018-05-11T16:56:41.945Z,68.60
2018-05-11T16:59:08.337Z,68.60
2018-05-11T17:01:34.769Z,67.78
2018-05-11T17:04:01.237Z,68.63
2018-05-11T17:06:27.638Z,68.69
2018-05-11T17:08:54.069Z,68.75
2018-05-11T17:11:20.641Z,69.35
2018-05-11T17:13:47.150Z,70.41
2018-05-11T17:16:13.690Z,69.46
2018-05-11T17:18:40.235Z,71.25
2018-05-11T17:21:06.665Z,70.41
2018-05-11T17:23:33.154Z,71.02
2018-05-11T17:25:59.662Z,71.54
2018-05-11T17:28:26.159Z,71.11
2018-05-11T17:30:52.693Z,68.88
2018-05-11T17:33:19.652Z,69.45
2018-05-11T17:35:46.041Z,69.50
2018-05-11T17:38:12.544Z,69.69
2018-05-11T17:40:39.016Z,69.71
2018-05-11T17:43:05.558Z,71.37
2018-05-11T17:45:31.943Z,71.71
2018-05-11T17:47:58.491Z,72.46
2018-05-11T17:50:24.945Z,72.25
2018-05-11T17:52:51.406Z,75.87
2018-05-11T17:55:17.800Z,77.79
2018-05-11T17:57:44.285Z,79.59
2018-05-11T18:00:10.667Z,80.02
2018-05-11T18:02:37.114Z,80.37
2018-05-11T18:05:03.600Z,80.89
2018-05-11T18:07:30.007Z,81.59
2018-05-11T18:09:56.602Z,82.07
2018-05-11T18:12:23.103Z,82.74
2018-05-11T18:14:49.404Z,82.68
2018-05-11T18:17:15.914Z,82.12
2018-05-11T18:19:42.535Z,81.85
2018-05-11T18:22:08.971Z,81.77
2018-05-11T18:24:35.367Z,80.04
2018-05-11T18:27:01.877Z,80.55
2018-05-11T18:29:28.420Z,79.82
2018-05-11T18:31:54.904Z,79.08
2018-05-11T18:34:22.303Z,77.41
2018-05-11T18:36:48.755Z,76.88
2018-05-11T18:39:15.129Z,76.89
2018-05-11T18:41:41.557Z,77.95
2018-05-11T18:44:08.079Z,79.62
2018-05-11T18:46:34.614Z,80.50
2018-05-11T18:49:01.089Z,82.08
2018-05-11T18:51:27.636Z,82.17
2018-05-11T18:53:54.525Z,84.33
2018-05-11T18:56:20.665Z,84.45
2018-05-11T18:58:47.262Z,85.64
2018-05-11T19:01:13.738Z,86.59
2018-05-11T19:03:40.220Z,87.86
2018-05-11T19:06:06.703Z,88.36
2018-05-11T19:08:34.058Z,88.71
2018-05-11T19:11:00.590Z,88.91
2018-05-11T19:13:26.995Z,88.44
2018-05-11T19:15:53.478Z,88.39
2018-05-11T19:18:19.941Z,87.89
2018-05-11T19:20:46.326Z,88.54
2018-05-11T19:23:12.873Z,88.51
2018-05-11T19:25:39.311Z,88.45
2018-05-11T19:28:05.829Z,89.04
2018-05-11T19:30:32.290Z,89.33
2018-05-11T19:32:58.902Z,89.45
2018-05-11T19:35:25.603Z,89.41
2018-05-11T19:37:52.065Z,90.10
2018-05-11T19:40:18.560Z,90.00
2018-05-11T19:42:45.084Z,90.08
2018-05-11T19:45:11.631Z,90.18
2018-05-11T19:47:38.127Z,89.06
2018-05-11T19:50:04.509Z,88.62
2018-05-11T19:52:31.036Z,88.68
2018-05-11T19:54:57.560Z,89.18
2018-05-11T19:57:24.081Z,88.82
2018-05-11T19:59:50.505Z,88.81
2018-05-11T20:02:17.110Z,88.94
2018-05-11T20:04:43.774Z,89.60
2018-05-11T20:07:11.135Z,89.84
2018-05-11T20:09:37.653Z,90.19
2018-05-11T20:12:04.110Z,90.37
2018-05-11T20:14:30.522Z,89.94
2018-05-11T20:16:57.027Z,89.47
2018-05-11T20:19:23.498Z,89.85
2018-05-11T20:21:49.987Z,90.05
2018-05-11T20:24:16.559Z,90.73
2018-05-11T20:26:43.144Z,90.85
2018-05-11T20:29:09.646Z,90.88
2018-05-11T20:31:36.134Z,90.71
2018-05-11T20:34:02.583Z,89.74
2018-05-11T20:36:29.157Z,90.15
2018-05-11T20:38:55.664Z,90.44
2018-05-11T20:41:22.247Z,90.29
2018-05-11T20:43:48.764Z,91.01
2018-05-11T20:46:15.220Z,91.22
2018-05-11T20:48:41.731Z,90.69
2018-05-11T20:51:08.268Z,90.97
2018-05-11T20:53:34.786Z,91.08
2018-05-11T20:56:01.246Z,90.78
2018-05-11T20:58:27.728Z,91.43
2018-05-11T21:00:54.217Z,90.89
2018-05-11T21:03:20.665Z,91.17
2018-05-11T21:05:47.076Z,91.03
2018-05-11T21:08:13.567Z,91.18
2018-05-11T21:10:40.205Z,91.12
2018-05-11T21:13:06.644Z,91.47
2018-05-11T21:15:33.119Z,91.94
2018-05-11T21:17:59.551Z,91.56
2018-05-11T21:20:25.991Z,91.49
2018-05-11T21:22:52.440Z,91.35
2018-05-11T21:25:18.857Z,91.00
2018-05-11T21:27:46.159Z,90.87
2018-05-11T21:30:12.645Z,91.01
2018-05-11T21:32:39.135Z,90.55
2018-05-11T21:35:05.604Z,90.80
2018-05-11T21:37:31.950Z,90.50
2018-05-11T21:39:58.395Z,90.86
2018-05-11T21:42:24.897Z,90.74
2018-05-11T21:44:51.388Z,90.51
2018-05-11T21:47:17.802Z,90.53
2018-05-11T21:49:44.211Z,91.11
2018-05-11T21:52:10.716Z,91.36
2018-05-11T21:54:37.098Z,91.26
2018-05-11T21:57:03.488Z,91.40
2018-05-11T21:59:29.942Z,90.72
2018-05-11T22:01:56.459Z,90.94
2018-05-11T22:04:22.934Z,91.12
2018-05-11T22:06:49.526Z,91.31
2018-05-11T22:09:15.978Z,90.55
2018-05-11T22:11:42.549Z,90.13
2018-05-11T22:14:09.719Z,90.80
2018-05-11T22:16:36.391Z,90.59
2018-05-11T22:19:02.791Z,90.89
2018-05-11T22:21:29.351Z,90.73
2018-05-11T22:23:55.764Z,90.44
2018-05-11T22:26:22.317Z,90.52
2018-05-11T22:28:48.777Z,90.64
2018-05-11T22:31:15.194Z,90.76
2018-05-11T22:33:41.626Z,90.30
2018-05-11T22:36:08.171Z,90.17
2018-05-11T22:38:34.539Z,90.18
2018-05-11T22:41:00.977Z,89.95
2018-05-11T22:43:27.466Z,89.42
2018-05-11T22:45:53.870Z,89.78
2018-05-11T22:48:20.390Z,89.77
2018-05-11T22:50:46.848Z,90.38
2018-05-11T22:53:13.242Z,89.20
2018-05-11T22:55:39.593Z,88.92
2018-05-11T22:58:05.957Z,88.88
2018-05-11T23:00:39.647Z,88.79
2018-05-11T23:03:05.937Z,88.45
2018-05-11T23:05:33.084Z,88.40
2018-05-11T23:07:59.627Z,88.61
2018-05-11T23:10:26.066Z,88.86
2018-05-11T23:12:52.507Z,88.46
2018-05-11T23:15:18.911Z,88.47
2018-05-11T23:17:45.381Z,87.98
2018-05-11T23:20:11.860Z,88.17
2018-05-11T23:22:38.378Z,88.79
2018-05-11T23:25:04.874Z,88.54
2018-05-11T23:27:38.397Z,88.50
2018-05-11T23:30:04.931Z,88.54
2018-05-11T23:32:31.412Z,88.74
2018-05-11T23:34:57.883Z,88.51
2018-05-11T23:37:24.262Z,88.43
2018-05-11T23:39:50.681Z,88.58
2018-05-11T23:42:17.121Z,88.26
2018-05-11T23:44:43.533Z,87.81
2018-05-11T23:47:10.024Z,88.32
2018-05-11T23:49:36.509Z,88.79
2018-05-11T23:52:02.961Z,88.74
2018-05-11T23:54:29.367Z,88.75
2018-05-11T23:56:55.768Z,88.78
2018-05-11T23:59:22.271Z,88.56
